sensor_id;sensor_type;location;lat;lon;timestamp;P1;durP1;ratioP1;P2;durP2;ratioP2
13114;SDS011;6623;52.120;8.660;2023-03-24T00:00:17;3.33;;;1.70;;
13114;SDS011;6623;52.120;8.660;2023-03-24T00:02:45;6.50;;;2.07;;
13114;SDS011;6623;52.120;8.660;2023-03-24T00:05:21;3.93;;;1.60;;
13114;SDS011;6623;52.120;8.660;2023-03-24T00:07:47;4.43;;;2.03;;
13114;SDS011;6623;52.120;8.660;2023-03-24T00:10:14;4.63;;;1.77;;
13114;SDS011;6623;52.120;8.660;2023-03-24T00:12:42;4.10;;;2.13;;
13114;SDS011;6623;52.120;8.660;2023-03-24T00:15:10;4.10;;;2.37;;
13114;SDS011;6623;52.120;8.660;2023-03-24T00:17:37;5.07;;;1.90;;
13114;SDS011;6623;52.120;8.660;2023-03-24T00:20:05;2.30;;;1.60;;
13114;SDS011;6623;52.120;8.660;2023-03-24T00:22:40;5.43;;;2.00;;
13114;SDS011;6623;52.120;8.660;2023-03-24T00:25:08;4.00;;;1.70;;
13114;SDS011;6623;52.120;8.660;2023-03-24T00:27:36;4.93;;;1.90;;
13114;SDS011;6623;52.120;8.660;2023-03-24T00:30:06;5.33;;;2.43;;
13114;SDS011;6623;52.120;8.660;2023-03-24T00:32:33;3.63;;;2.10;;
13114;SDS011;6623;52.120;8.660;2023-03-24T00:35:02;3.27;;;2.00;;
13114;SDS011;6623;52.120;8.660;2023-03-24T00:37:34;3.23;;;1.60;;
13114;SDS011;6623;52.120;8.660;2023-03-24T00:40:04;4.90;;;1.90;;
13114;SDS011;6623;52.120;8.660;2023-03-24T00:42:33;3.97;;;1.83;;
13114;SDS011;6623;52.120;8.660;2023-03-24T00:44:59;4.23;;;1.77;;
13114;SDS011;6623;52.120;8.660;2023-03-24T00:47:27;1.77;;;1.60;;
13114;SDS011;6623;52.120;8.660;2023-03-24T00:49:53;3.97;;;2.20;;
13114;SDS011;6623;52.120;8.660;2023-03-24T00:52:22;4.80;;;1.90;;
13114;SDS011;6623;52.120;8.660;2023-03-24T00:54:49;4.53;;;2.20;;
13114;SDS011;6623;52.120;8.660;2023-03-24T00:57:19;2.97;;;1.83;;
13114;SDS011;6623;52.120;8.660;2023-03-24T00:59:50;2.97;;;1.77;;
13114;SDS011;6623;52.120;8.660;2023-03-24T01:02:19;3.23;;;1.80;;
13114;SDS011;6623;52.120;8.660;2023-03-24T01:04:46;2.60;;;1.50;;
13114;SDS011;6623;52.120;8.660;2023-03-24T01:07:24;4.77;;;1.70;;
13114;SDS011;6623;52.120;8.660;2023-03-24T01:09:51;2.37;;;1.70;;
13114;SDS011;6623;52.120;8.660;2023-03-24T01:12:21;3.27;;;1.87;;
13114;SDS011;6623;52.120;8.660;2023-03-24T01:14:51;5.07;;;2.00;;
13114;SDS011;6623;52.120;8.660;2023-03-24T01:17:18;3.83;;;1.93;;
13114;SDS011;6623;52.120;8.660;2023-03-24T01:19:46;3.63;;;1.73;;
13114;SDS011;6623;52.120;8.660;2023-03-24T01:22:12;2.27;;;1.53;;
13114;SDS011;6623;52.120;8.660;2023-03-24T01:24:38;3.73;;;1.80;;
13114;SDS011;6623;52.120;8.660;2023-03-24T01:27:04;3.93;;;1.80;;
13114;SDS011;6623;52.120;8.660;2023-03-24T01:29:29;2.47;;;1.87;;
13114;SDS011;6623;52.120;8.660;2023-03-24T01:31:55;4.57;;;1.90;;
13114;SDS011;6623;52.120;8.660;2023-03-24T01:34:21;3.80;;;1.67;;
13114;SDS011;6623;52.120;8.660;2023-03-24T01:36:46;3.47;;;2.13;;
13114;SDS011;6623;52.120;8.660;2023-03-24T01:39:12;3.00;;;1.77;;
13114;SDS011;6623;52.120;8.660;2023-03-24T01:41:38;2.60;;;1.67;;
13114;SDS011;6623;52.120;8.660;2023-03-24T01:46:53;2.33;;;1.50;;
13114;SDS011;6623;52.120;8.660;2023-03-24T01:49:19;2.93;;;1.60;;
13114;SDS011;6623;52.120;8.660;2023-03-24T01:51:48;2.70;;;1.40;;
13114;SDS011;6623;52.120;8.660;2023-03-24T01:54:26;3.53;;;1.47;;
13114;SDS011;6623;52.120;8.660;2023-03-24T01:57:26;2.47;;;1.40;;
13114;SDS011;6623;52.120;8.660;2023-03-24T02:00:02;2.53;;;1.40;;
13114;SDS011;6623;52.120;8.660;2023-03-24T02:02:32;1.73;;;1.40;;
13114;SDS011;6623;52.120;8.660;2023-03-24T02:05:01;2.93;;;1.40;;
13114;SDS011;6623;52.120;8.660;2023-03-24T02:10:01;2.53;;;1.60;;
13114;SDS011;6623;52.120;8.660;2023-03-24T02:12:29;2.10;;;1.63;;
13114;SDS011;6623;52.120;8.660;2023-03-24T02:14:56;2.33;;;1.50;;
13114;SDS011;6623;52.120;8.660;2023-03-24T02:17:36;2.23;;;1.60;;
13114;SDS011;6623;52.120;8.660;2023-03-24T02:28:42;3.27;;;2.00;;
13114;SDS011;6623;52.120;8.660;2023-03-24T02:31:26;2.30;;;1.60;;
13114;SDS011;6623;52.120;8.660;2023-03-24T02:40:01;1.97;;;1.60;;
13114;SDS011;6623;52.120;8.660;2023-03-24T02:45:53;2.43;;;1.60;;
13114;SDS011;6623;52.120;8.660;2023-03-24T02:49:00;3.93;;;1.70;;
13114;SDS011;6623;52.120;8.660;2023-03-24T02:52:00;4.13;;;1.90;;
13114;SDS011;6623;52.120;8.660;2023-03-24T02:54:48;3.07;;;1.90;;
13114;SDS011;6623;52.120;8.660;2023-03-24T02:57:41;3.03;;;1.90;;
13114;SDS011;6623;52.120;8.660;2023-03-24T03:02:44;4.53;;;1.60;;
13114;SDS011;6623;52.120;8.660;2023-03-24T03:05:18;2.67;;;1.80;;
13114;SDS011;6623;52.120;8.660;2023-03-24T03:07:57;2.00;;;1.80;;
13114;SDS011;6623;52.120;8.660;2023-03-24T03:10:26;3.50;;;1.80;;
13114;SDS011;6623;52.120;8.660;2023-03-24T03:12:55;3.20;;;1.80;;
13114;SDS011;6623;52.120;8.660;2023-03-24T03:15:25;3.17;;;1.90;;
13114;SDS011;6623;52.120;8.660;2023-03-24T03:18:39;3.33;;;2.00;;
13114;SDS011;6623;52.120;8.660;2023-03-24T03:20:51;2.00;;;1.60;;
13114;SDS011;6623;52.120;8.660;2023-03-24T03:23:22;2.67;;;1.90;;
13114;SDS011;6623;52.120;8.660;2023-03-24T03:25:53;2.70;;;1.93;;
13114;SDS011;6623;52.120;8.660;2023-03-24T03:28:22;2.70;;;1.90;;
13114;SDS011;6623;52.120;8.660;2023-03-24T03:30:53;4.57;;;2.10;;
13114;SDS011;6623;52.120;8.660;2023-03-24T03:33:24;3.03;;;2.00;;
13114;SDS011;6623;52.120;8.660;2023-03-24T03:35:59;2.53;;;1.93;;
13114;SDS011;6623;52.120;8.660;2023-03-24T03:38:33;2.80;;;2.07;;
13114;SDS011;6623;52.120;8.660;2023-03-24T03:41:08;3.70;;;2.33;;
13114;SDS011;6623;52.120;8.660;2023-03-24T03:43:34;3.40;;;2.07;;
13114;SDS011;6623;52.120;8.660;2023-03-24T03:46:00;2.73;;;2.30;;
13114;SDS011;6623;52.120;8.660;2023-03-24T03:48:27;3.40;;;2.30;;
13114;SDS011;6623;52.120;8.660;2023-03-24T03:50:53;3.67;;;2.30;;
13114;SDS011;6623;52.120;8.660;2023-03-24T03:53:19;3.23;;;2.60;;
13114;SDS011;6623;52.120;8.660;2023-03-24T03:55:50;5.03;;;2.50;;
13114;SDS011;6623;52.120;8.660;2023-03-24T03:58:16;2.90;;;2.00;;
13114;SDS011;6623;52.120;8.660;2023-03-24T04:00:41;2.83;;;2.23;;
13114;SDS011;6623;52.120;8.660;2023-03-24T04:05:48;3.20;;;2.13;;
13114;SDS011;6623;52.120;8.660;2023-03-24T04:17:05;2.57;;;2.20;;
13114;SDS011;6623;52.120;8.660;2023-03-24T04:22:35;4.37;;;2.53;;
13114;SDS011;6623;52.120;8.660;2023-03-24T04:25:27;3.40;;;2.17;;
13114;SDS011;6623;52.120;8.660;2023-03-24T04:31:13;3.03;;;2.20;;
13114;SDS011;6623;52.120;8.660;2023-03-24T04:39:12;3.73;;;2.40;;
13114;SDS011;6623;52.120;8.660;2023-03-24T04:41:41;3.37;;;2.47;;
13114;SDS011;6623;52.120;8.660;2023-03-24T04:44:09;3.07;;;2.33;;
13114;SDS011;6623;52.120;8.660;2023-03-24T04:46:36;3.23;;;2.33;;
13114;SDS011;6623;52.120;8.660;2023-03-24T04:49:03;2.23;;;2.03;;
13114;SDS011;6623;52.120;8.660;2023-03-24T04:51:29;2.97;;;2.43;;
13114;SDS011;6623;52.120;8.660;2023-03-24T04:53:56;2.83;;;2.17;;
13114;SDS011;6623;52.120;8.660;2023-03-24T04:56:28;3.03;;;2.13;;
13114;SDS011;6623;52.120;8.660;2023-03-24T04:59:00;2.90;;;2.20;;
13114;SDS011;6623;52.120;8.660;2023-03-24T05:01:26;3.80;;;2.50;;
13114;SDS011;6623;52.120;8.660;2023-03-24T05:03:56;4.33;;;2.50;;
13114;SDS011;6623;52.120;8.660;2023-03-24T05:06:22;3.03;;;2.67;;
13114;SDS011;6623;52.120;8.660;2023-03-24T05:08:48;3.03;;;2.43;;
13114;SDS011;6623;52.120;8.660;2023-03-24T05:11:16;5.00;;;2.80;;
13114;SDS011;6623;52.120;8.660;2023-03-24T05:13:42;3.30;;;2.40;;
13114;SDS011;6623;52.120;8.660;2023-03-24T05:16:08;2.43;;;2.13;;
13114;SDS011;6623;52.120;8.660;2023-03-24T05:18:34;3.30;;;2.03;;
13114;SDS011;6623;52.120;8.660;2023-03-24T05:20:59;3.17;;;2.30;;
13114;SDS011;6623;52.120;8.660;2023-03-24T05:23:26;2.97;;;2.30;;
13114;SDS011;6623;52.120;8.660;2023-03-24T05:25:51;2.57;;;2.10;;
13114;SDS011;6623;52.120;8.660;2023-03-24T05:28:17;3.13;;;2.23;;
13114;SDS011;6623;52.120;8.660;2023-03-24T05:30:42;4.13;;;2.50;;
13114;SDS011;6623;52.120;8.660;2023-03-24T05:33:08;4.07;;;2.60;;
13114;SDS011;6623;52.120;8.660;2023-03-24T05:35:33;4.37;;;2.40;;
13114;SDS011;6623;52.120;8.660;2023-03-24T05:37:59;3.00;;;2.30;;
13114;SDS011;6623;52.120;8.660;2023-03-24T05:40:25;2.97;;;2.67;;
13114;SDS011;6623;52.120;8.660;2023-03-24T05:42:50;3.30;;;2.67;;
13114;SDS011;6623;52.120;8.660;2023-03-24T05:45:16;4.43;;;3.20;;
13114;SDS011;6623;52.120;8.660;2023-03-24T05:47:41;4.03;;;2.20;;
13114;SDS011;6623;52.120;8.660;2023-03-24T05:50:07;3.57;;;1.27;;
13114;SDS011;6623;52.120;8.660;2023-03-24T05:52:33;2.10;;;1.30;;
13114;SDS011;6623;52.120;8.660;2023-03-24T05:54:59;1.40;;;0.90;;
13114;SDS011;6623;52.120;8.660;2023-03-24T05:57:25;6.20;;;1.30;;
13114;SDS011;6623;52.120;8.660;2023-03-24T05:59:54;2.30;;;1.30;;
13114;SDS011;6623;52.120;8.660;2023-03-24T06:02:20;1.47;;;1.07;;
13114;SDS011;6623;52.120;8.660;2023-03-24T06:04:46;2.67;;;1.10;;
13114;SDS011;6623;52.120;8.660;2023-03-24T06:07:13;1.97;;;1.10;;
13114;SDS011;6623;52.120;8.660;2023-03-24T06:09:39;1.47;;;0.90;;
13114;SDS011;6623;52.120;8.660;2023-03-24T06:12:06;2.30;;;1.10;;
13114;SDS011;6623;52.120;8.660;2023-03-24T06:14:33;1.30;;;1.20;;
13114;SDS011;6623;52.120;8.660;2023-03-24T06:16:58;2.03;;;1.60;;
13114;SDS011;6623;52.120;8.660;2023-03-24T06:19:25;2.00;;;1.80;;
13114;SDS011;6623;52.120;8.660;2023-03-24T06:21:51;2.70;;;1.77;;
13114;SDS011;6623;52.120;8.660;2023-03-24T06:24:18;2.00;;;1.80;;
13114;SDS011;6623;52.120;8.660;2023-03-24T06:26:45;1.70;;;1.50;;
13114;SDS011;6623;52.120;8.660;2023-03-24T06:29:13;2.17;;;1.60;;
13114;SDS011;6623;52.120;8.660;2023-03-24T06:31:41;1.83;;;1.50;;
13114;SDS011;6623;52.120;8.660;2023-03-24T06:34:08;2.03;;;1.40;;
13114;SDS011;6623;52.120;8.660;2023-03-24T06:36:33;1.43;;;1.30;;
13114;SDS011;6623;52.120;8.660;2023-03-24T06:39:02;1.50;;;1.23;;
13114;SDS011;6623;52.120;8.660;2023-03-24T06:41:29;1.63;;;1.27;;
13114;SDS011;6623;52.120;8.660;2023-03-24T06:43:55;2.13;;;1.33;;
13114;SDS011;6623;52.120;8.660;2023-03-24T06:46:21;2.80;;;1.43;;
13114;SDS011;6623;52.120;8.660;2023-03-24T06:48:47;1.40;;;1.20;;
13114;SDS011;6623;52.120;8.660;2023-03-24T06:51:13;1.40;;;1.10;;
13114;SDS011;6623;52.120;8.660;2023-03-24T06:53:38;1.93;;;1.10;;
13114;SDS011;6623;52.120;8.660;2023-03-24T06:56:05;2.07;;;1.10;;
13114;SDS011;6623;52.120;8.660;2023-03-24T06:58:31;2.43;;;1.00;;
13114;SDS011;6623;52.120;8.660;2023-03-24T07:00:58;2.07;;;0.97;;
13114;SDS011;6623;52.120;8.660;2023-03-24T07:03:25;4.10;;;1.00;;
13114;SDS011;6623;52.120;8.660;2023-03-24T07:05:50;1.83;;;1.10;;
13114;SDS011;6623;52.120;8.660;2023-03-24T07:08:16;3.70;;;1.20;;
13114;SDS011;6623;52.120;8.660;2023-03-24T07:10:41;4.63;;;0.97;;
13114;SDS011;6623;52.120;8.660;2023-03-24T07:13:07;2.40;;;1.00;;
13114;SDS011;6623;52.120;8.660;2023-03-24T07:15:33;2.63;;;0.90;;
13114;SDS011;6623;52.120;8.660;2023-03-24T07:17:59;5.17;;;1.10;;
13114;SDS011;6623;52.120;8.660;2023-03-24T07:20:25;2.63;;;1.00;;
13114;SDS011;6623;52.120;8.660;2023-03-24T07:22:54;2.20;;;1.03;;
13114;SDS011;6623;52.120;8.660;2023-03-24T07:25:20;3.87;;;1.00;;
13114;SDS011;6623;52.120;8.660;2023-03-24T07:27:46;2.97;;;1.10;;
13114;SDS011;6623;52.120;8.660;2023-03-24T07:30:12;2.50;;;1.00;;
13114;SDS011;6623;52.120;8.660;2023-03-24T07:32:38;1.30;;;1.00;;
13114;SDS011;6623;52.120;8.660;2023-03-24T07:35:05;4.17;;;1.40;;
13114;SDS011;6623;52.120;8.660;2023-03-24T07:37:31;4.20;;;1.20;;
13114;SDS011;6623;52.120;8.660;2023-03-24T07:39:57;2.67;;;1.20;;
13114;SDS011;6623;52.120;8.660;2023-03-24T07:42:23;3.20;;;1.00;;
13114;SDS011;6623;52.120;8.660;2023-03-24T07:44:49;3.27;;;1.30;;
13114;SDS011;6623;52.120;8.660;2023-03-24T07:47:15;2.77;;;1.20;;
13114;SDS011;6623;52.120;8.660;2023-03-24T07:49:41;3.30;;;1.17;;
13114;SDS011;6623;52.120;8.660;2023-03-24T07:52:07;5.27;;;1.40;;
13114;SDS011;6623;52.120;8.660;2023-03-24T07:54:32;7.00;;;1.70;;
13114;SDS011;6623;52.120;8.660;2023-03-24T07:56:58;3.97;;;1.53;;
13114;SDS011;6623;52.120;8.660;2023-03-24T07:59:24;6.70;;;1.70;;
13114;SDS011;6623;52.120;8.660;2023-03-24T08:01:50;5.27;;;1.50;;
13114;SDS011;6623;52.120;8.660;2023-03-24T08:04:16;2.67;;;1.50;;
13114;SDS011;6623;52.120;8.660;2023-03-24T08:06:42;6.47;;;1.60;;
13114;SDS011;6623;52.120;8.660;2023-03-24T08:09:08;5.27;;;1.63;;
13114;SDS011;6623;52.120;8.660;2023-03-24T08:11:35;4.10;;;1.60;;
13114;SDS011;6623;52.120;8.660;2023-03-24T08:14:01;6.07;;;1.83;;
13114;SDS011;6623;52.120;8.660;2023-03-24T08:16:26;7.40;;;2.13;;
13114;SDS011;6623;52.120;8.660;2023-03-24T08:18:52;7.60;;;2.03;;
13114;SDS011;6623;52.120;8.660;2023-03-24T08:21:18;8.60;;;2.30;;
13114;SDS011;6623;52.120;8.660;2023-03-24T08:23:43;8.30;;;2.20;;
13114;SDS011;6623;52.120;8.660;2023-03-24T08:26:09;6.87;;;2.00;;
13114;SDS011;6623;52.120;8.660;2023-03-24T08:28:37;5.50;;;2.20;;
13114;SDS011;6623;52.120;8.660;2023-03-24T08:31:03;5.67;;;1.93;;
13114;SDS011;6623;52.120;8.660;2023-03-24T08:33:28;8.73;;;1.83;;
13114;SDS011;6623;52.120;8.660;2023-03-24T08:35:54;8.87;;;2.13;;
13114;SDS011;6623;52.120;8.660;2023-03-24T08:38:24;9.30;;;2.10;;
13114;SDS011;6623;52.120;8.660;2023-03-24T08:40:54;8.00;;;1.97;;
13114;SDS011;6623;52.120;8.660;2023-03-24T08:43:22;7.43;;;2.30;;
13114;SDS011;6623;52.120;8.660;2023-03-24T08:45:49;7.27;;;2.00;;
13114;SDS011;6623;52.120;8.660;2023-03-24T08:48:15;7.10;;;2.20;;
13114;SDS011;6623;52.120;8.660;2023-03-24T08:50:41;6.00;;;2.30;;
13114;SDS011;6623;52.120;8.660;2023-03-24T08:53:06;9.27;;;2.43;;
13114;SDS011;6623;52.120;8.660;2023-03-24T08:55:33;8.47;;;1.80;;
13114;SDS011;6623;52.120;8.660;2023-03-24T08:57:59;10.73;;;2.10;;
13114;SDS011;6623;52.120;8.660;2023-03-24T09:00:25;4.37;;;1.83;;
13114;SDS011;6623;52.120;8.660;2023-03-24T09:02:51;8.93;;;2.27;;
13114;SDS011;6623;52.120;8.660;2023-03-24T09:05:18;8.90;;;2.40;;
13114;SDS011;6623;52.120;8.660;2023-03-24T09:07:45;6.70;;;1.93;;
13114;SDS011;6623;52.120;8.660;2023-03-24T09:10:13;8.67;;;2.30;;
13114;SDS011;6623;52.120;8.660;2023-03-24T09:12:39;6.63;;;2.00;;
13114;SDS011;6623;52.120;8.660;2023-03-24T09:15:06;7.03;;;2.00;;
13114;SDS011;6623;52.120;8.660;2023-03-24T09:17:33;5.97;;;1.90;;
13114;SDS011;6623;52.120;8.660;2023-03-24T09:20:00;6.90;;;1.60;;
13114;SDS011;6623;52.120;8.660;2023-03-24T09:22:25;9.30;;;2.23;;
13114;SDS011;6623;52.120;8.660;2023-03-24T09:24:51;4.63;;;1.70;;
13114;SDS011;6623;52.120;8.660;2023-03-24T09:27:16;4.60;;;1.40;;
13114;SDS011;6623;52.120;8.660;2023-03-24T09:29:42;8.73;;;2.23;;
13114;SDS011;6623;52.120;8.660;2023-03-24T09:32:08;5.13;;;1.77;;
13114;SDS011;6623;52.120;8.660;2023-03-24T09:34:34;4.07;;;2.03;;
13114;SDS011;6623;52.120;8.660;2023-03-24T09:37:02;6.03;;;1.70;;
13114;SDS011;6623;52.120;8.660;2023-03-24T09:39:28;4.80;;;1.73;;
13114;SDS011;6623;52.120;8.660;2023-03-24T09:41:54;6.27;;;2.00;;
13114;SDS011;6623;52.120;8.660;2023-03-24T09:44:27;7.67;;;2.00;;
13114;SDS011;6623;52.120;8.660;2023-03-24T09:46:59;5.50;;;1.63;;
13114;SDS011;6623;52.120;8.660;2023-03-24T09:49:34;7.93;;;1.90;;
13114;SDS011;6623;52.120;8.660;2023-03-24T09:52:03;5.23;;;1.50;;
13114;SDS011;6623;52.120;8.660;2023-03-24T09:54:48;4.37;;;1.70;;
13114;SDS011;6623;52.120;8.660;2023-03-24T09:57:28;5.87;;;1.70;;
13114;SDS011;6623;52.120;8.660;2023-03-24T10:00:23;8.10;;;2.00;;
13114;SDS011;6623;52.120;8.660;2023-03-24T10:02:53;8.87;;;1.90;;
13114;SDS011;6623;52.120;8.660;2023-03-24T10:05:32;5.70;;;1.70;;
13114;SDS011;6623;52.120;8.660;2023-03-24T10:08:14;6.30;;;1.63;;
13114;SDS011;6623;52.120;8.660;2023-03-24T10:11:06;5.90;;;1.50;;
13114;SDS011;6623;52.120;8.660;2023-03-24T10:13:53;4.80;;;1.50;;
13114;SDS011;6623;52.120;8.660;2023-03-24T10:16:41;4.87;;;1.63;;
13114;SDS011;6623;52.120;8.660;2023-03-24T10:22:28;4.47;;;1.50;;
13114;SDS011;6623;52.120;8.660;2023-03-24T10:30:22;7.80;;;1.80;;
13114;SDS011;6623;52.120;8.660;2023-03-24T10:32:52;6.67;;;1.57;;
13114;SDS011;6623;52.120;8.660;2023-03-24T10:35:23;5.53;;;1.83;;
13114;SDS011;6623;52.120;8.660;2023-03-24T10:37:57;6.73;;;1.40;;
13114;SDS011;6623;52.120;8.660;2023-03-24T10:40:27;3.57;;;1.30;;
13114;SDS011;6623;52.120;8.660;2023-03-24T10:42:55;5.83;;;1.40;;
13114;SDS011;6623;52.120;8.660;2023-03-24T10:45:25;6.90;;;1.53;;
13114;SDS011;6623;52.120;8.660;2023-03-24T10:47:53;3.60;;;1.23;;
13114;SDS011;6623;52.120;8.660;2023-03-24T10:50:23;5.83;;;1.13;;
13114;SDS011;6623;52.120;8.660;2023-03-24T10:52:51;9.03;;;1.77;;
13114;SDS011;6623;52.120;8.660;2023-03-24T10:55:17;3.93;;;1.27;;
13114;SDS011;6623;52.120;8.660;2023-03-24T10:57:48;6.00;;;1.50;;
13114;SDS011;6623;52.120;8.660;2023-03-24T11:00:24;5.77;;;1.30;;
13114;SDS011;6623;52.120;8.660;2023-03-24T11:03:00;5.47;;;1.53;;
13114;SDS011;6623;52.120;8.660;2023-03-24T11:05:31;5.20;;;1.50;;
13114;SDS011;6623;52.120;8.660;2023-03-24T11:08:13;5.77;;;1.50;;
13114;SDS011;6623;52.120;8.660;2023-03-24T11:10:55;3.93;;;1.10;;
13114;SDS011;6623;52.120;8.660;2023-03-24T11:13:31;5.83;;;1.57;;
13114;SDS011;6623;52.120;8.660;2023-03-24T11:16:11;7.40;;;1.40;;
13114;SDS011;6623;52.120;8.660;2023-03-24T11:21:22;4.60;;;1.10;;
13114;SDS011;6623;52.120;8.660;2023-03-24T11:23:48;4.27;;;1.20;;
13114;SDS011;6623;52.120;8.660;2023-03-24T11:28:49;5.70;;;1.20;;
13114;SDS011;6623;52.120;8.660;2023-03-24T11:31:21;8.63;;;1.80;;
13114;SDS011;6623;52.120;8.660;2023-03-24T11:34:11;4.83;;;1.40;;
13114;SDS011;6623;52.120;8.660;2023-03-24T11:36:59;4.37;;;1.50;;
13114;SDS011;6623;52.120;8.660;2023-03-24T11:39:31;5.10;;;1.50;;
13114;SDS011;6623;52.120;8.660;2023-03-24T11:41:59;4.07;;;1.40;;
13114;SDS011;6623;52.120;8.660;2023-03-24T11:47:21;4.33;;;1.30;;
13114;SDS011;6623;52.120;8.660;2023-03-24T11:49:50;5.90;;;1.40;;
13114;SDS011;6623;52.120;8.660;2023-03-24T11:53:18;5.07;;;1.50;;
13114;SDS011;6623;52.120;8.660;2023-03-24T11:55:17;4.27;;;1.43;;
13114;SDS011;6623;52.120;8.660;2023-03-24T12:06:15;3.93;;;1.10;;
13114;SDS011;6623;52.120;8.660;2023-03-24T12:08:56;3.70;;;1.30;;
13114;SDS011;6623;52.120;8.660;2023-03-24T12:14:15;6.40;;;1.40;;
13114;SDS011;6623;52.120;8.660;2023-03-24T12:16:57;5.20;;;1.60;;
13114;SDS011;6623;52.120;8.660;2023-03-24T12:19:43;5.93;;;1.60;;
13114;SDS011;6623;52.120;8.660;2023-03-24T12:25:27;6.40;;;1.60;;
13114;SDS011;6623;52.120;8.660;2023-03-24T12:30:51;4.63;;;1.20;;
13114;SDS011;6623;52.120;8.660;2023-03-24T12:33:34;3.60;;;1.10;;
13114;SDS011;6623;52.120;8.660;2023-03-24T12:36:12;3.50;;;1.30;;
13114;SDS011;6623;52.120;8.660;2023-03-24T12:44:13;6.63;;;1.23;;
13114;SDS011;6623;52.120;8.660;2023-03-24T12:58:17;6.47;;;2.20;;
13114;SDS011;6623;52.120;8.660;2023-03-24T13:00:59;7.90;;;1.40;;
13114;SDS011;6623;52.120;8.660;2023-03-24T13:03:47;5.97;;;1.60;;
13114;SDS011;6623;52.120;8.660;2023-03-24T13:06:21;6.30;;;1.53;;
13114;SDS011;6623;52.120;8.660;2023-03-24T13:09:01;4.47;;;1.20;;
13114;SDS011;6623;52.120;8.660;2023-03-24T13:11:37;5.47;;;1.30;;
13114;SDS011;6623;52.120;8.660;2023-03-24T13:14:24;5.50;;;1.40;;
13114;SDS011;6623;52.120;8.660;2023-03-24T13:16:55;4.50;;;1.10;;
13114;SDS011;6623;52.120;8.660;2023-03-24T13:19:28;4.23;;;1.50;;
13114;SDS011;6623;52.120;8.660;2023-03-24T13:21:57;4.67;;;1.40;;
13114;SDS011;6623;52.120;8.660;2023-03-24T13:24:23;6.93;;;1.70;;
13114;SDS011;6623;52.120;8.660;2023-03-24T13:27:02;7.17;;;1.60;;
13114;SDS011;6623;52.120;8.660;2023-03-24T13:29:54;5.07;;;1.47;;
13114;SDS011;6623;52.120;8.660;2023-03-24T13:32:27;6.07;;;1.70;;
13114;SDS011;6623;52.120;8.660;2023-03-24T13:35:02;4.90;;;1.40;;
13114;SDS011;6623;52.120;8.660;2023-03-24T13:37:51;4.90;;;1.20;;
13114;SDS011;6623;52.120;8.660;2023-03-24T13:40:23;4.70;;;1.53;;
13114;SDS011;6623;52.120;8.660;2023-03-24T13:47:54;5.03;;;1.27;;
13114;SDS011;6623;52.120;8.660;2023-03-24T13:50:31;8.40;;;1.50;;
13114;SDS011;6623;52.120;8.660;2023-03-24T13:53:02;5.00;;;1.53;;
13114;SDS011;6623;52.120;8.660;2023-03-24T13:55:33;5.00;;;1.70;;
13114;SDS011;6623;52.120;8.660;2023-03-24T13:58:06;5.20;;;1.30;;
13114;SDS011;6623;52.120;8.660;2023-03-24T14:03:44;4.93;;;1.50;;
13114;SDS011;6623;52.120;8.660;2023-03-24T14:06:14;5.90;;;1.77;;
13114;SDS011;6623;52.120;8.660;2023-03-24T14:19:16;4.07;;;1.40;;
13114;SDS011;6623;52.120;8.660;2023-03-24T14:21:49;4.97;;;1.30;;
13114;SDS011;6623;52.120;8.660;2023-03-24T14:24:20;5.90;;;1.30;;
13114;SDS011;6623;52.120;8.660;2023-03-24T14:26:50;4.87;;;1.23;;
13114;SDS011;6623;52.120;8.660;2023-03-24T14:29:32;4.53;;;1.23;;
13114;SDS011;6623;52.120;8.660;2023-03-24T14:32:01;4.60;;;1.20;;
13114;SDS011;6623;52.120;8.660;2023-03-24T14:34:28;4.60;;;1.30;;
13114;SDS011;6623;52.120;8.660;2023-03-24T14:37:00;4.47;;;1.30;;
13114;SDS011;6623;52.120;8.660;2023-03-24T14:39:40;6.40;;;1.47;;
13114;SDS011;6623;52.120;8.660;2023-03-24T14:48:00;3.93;;;1.13;;
13114;SDS011;6623;52.120;8.660;2023-03-24T14:50:19;3.47;;;1.10;;
13114;SDS011;6623;52.120;8.660;2023-03-24T14:52:47;2.67;;;1.20;;
13114;SDS011;6623;52.120;8.660;2023-03-24T14:55:17;3.67;;;1.30;;
13114;SDS011;6623;52.120;8.660;2023-03-24T14:58:03;4.13;;;1.23;;
13114;SDS011;6623;52.120;8.660;2023-03-24T15:00:39;3.67;;;1.40;;
13114;SDS011;6623;52.120;8.660;2023-03-24T15:03:29;4.20;;;1.30;;
13114;SDS011;6623;52.120;8.660;2023-03-24T15:06:11;4.27;;;1.40;;
13114;SDS011;6623;52.120;8.660;2023-03-24T15:08:38;5.30;;;1.40;;
13114;SDS011;6623;52.120;8.660;2023-03-24T15:11:07;5.60;;;1.60;;
13114;SDS011;6623;52.120;8.660;2023-03-24T15:13:41;3.70;;;1.13;;
13114;SDS011;6623;52.120;8.660;2023-03-24T15:18:35;3.23;;;1.30;;
13114;SDS011;6623;52.120;8.660;2023-03-24T15:21:23;4.27;;;1.30;;
13114;SDS011;6623;52.120;8.660;2023-03-24T15:27:32;4.27;;;1.50;;
13114;SDS011;6623;52.120;8.660;2023-03-24T15:29:44;4.07;;;1.13;;
13114;SDS011;6623;52.120;8.660;2023-03-24T15:32:17;2.97;;;1.40;;
13114;SDS011;6623;52.120;8.660;2023-03-24T15:34:55;3.83;;;1.30;;
13114;SDS011;6623;52.120;8.660;2023-03-24T15:39:49;3.63;;;1.40;;
13114;SDS011;6623;52.120;8.660;2023-03-24T15:42:22;2.30;;;1.20;;
13114;SDS011;6623;52.120;8.660;2023-03-24T15:44:49;2.50;;;0.93;;
13114;SDS011;6623;52.120;8.660;2023-03-24T15:49:51;3.77;;;0.80;;
13114;SDS011;6623;52.120;8.660;2023-03-24T15:54:50;2.07;;;0.70;;
13114;SDS011;6623;52.120;8.660;2023-03-24T15:57:17;3.57;;;0.80;;
13114;SDS011;6623;52.120;8.660;2023-03-24T15:59:48;1.90;;;0.70;;
13114;SDS011;6623;52.120;8.660;2023-03-24T16:03:15;0.80;;;0.70;;
13114;SDS011;6623;52.120;8.660;2023-03-24T16:05:22;2.70;;;0.60;;
13114;SDS011;6623;52.120;8.660;2023-03-24T16:08:22;1.03;;;0.90;;
13114;SDS011;6623;52.120;8.660;2023-03-24T16:11:01;1.07;;;0.70;;
13114;SDS011;6623;52.120;8.660;2023-03-24T16:13:35;1.13;;;0.50;;
13114;SDS011;6623;52.120;8.660;2023-03-24T16:18:40;2.30;;;0.70;;
13114;SDS011;6623;52.120;8.660;2023-03-24T16:21:23;1.10;;;0.60;;
13114;SDS011;6623;52.120;8.660;2023-03-24T16:23:52;2.77;;;1.40;;
13114;SDS011;6623;52.120;8.660;2023-03-24T16:28:58;4.27;;;0.80;;
13114;SDS011;6623;52.120;8.660;2023-03-24T16:31:37;2.40;;;0.80;;
13114;SDS011;6623;52.120;8.660;2023-03-24T16:34:03;2.00;;;0.67;;
13114;SDS011;6623;52.120;8.660;2023-03-24T16:36:28;1.90;;;0.80;;
13114;SDS011;6623;52.120;8.660;2023-03-24T16:38:55;2.40;;;0.70;;
13114;SDS011;6623;52.120;8.660;2023-03-24T16:41:22;2.20;;;0.70;;
13114;SDS011;6623;52.120;8.660;2023-03-24T16:43:48;3.77;;;0.83;;
13114;SDS011;6623;52.120;8.660;2023-03-24T16:46:14;2.13;;;0.60;;
13114;SDS011;6623;52.120;8.660;2023-03-24T16:48:54;3.47;;;0.83;;
13114;SDS011;6623;52.120;8.660;2023-03-24T16:51:20;1.50;;;0.80;;
13114;SDS011;6623;52.120;8.660;2023-03-24T16:53:45;1.63;;;0.90;;
13114;SDS011;6623;52.120;8.660;2023-03-24T16:56:12;1.77;;;0.80;;
13114;SDS011;6623;52.120;8.660;2023-03-24T16:58:39;1.70;;;0.73;;
13114;SDS011;6623;52.120;8.660;2023-03-24T17:01:11;1.93;;;1.00;;
13114;SDS011;6623;52.120;8.660;2023-03-24T17:04:00;1.93;;;0.80;;
13114;SDS011;6623;52.120;8.660;2023-03-24T17:06:29;1.80;;;0.87;;
13114;SDS011;6623;52.120;8.660;2023-03-24T17:08:57;0.97;;;0.67;;
13114;SDS011;6623;52.120;8.660;2023-03-24T17:11:27;3.10;;;0.90;;
13114;SDS011;6623;52.120;8.660;2023-03-24T17:13:55;1.20;;;0.73;;
13114;SDS011;6623;52.120;8.660;2023-03-24T17:16:25;2.00;;;0.97;;
13114;SDS011;6623;52.120;8.660;2023-03-24T17:18:53;1.17;;;0.80;;
13114;SDS011;6623;52.120;8.660;2023-03-24T17:21:19;1.63;;;0.90;;
13114;SDS011;6623;52.120;8.660;2023-03-24T17:23:45;1.97;;;1.10;;
13114;SDS011;6623;52.120;8.660;2023-03-24T17:26:14;4.60;;;1.10;;
13114;SDS011;6623;52.120;8.660;2023-03-24T17:28:40;2.87;;;1.00;;
13114;SDS011;6623;52.120;8.660;2023-03-24T17:31:06;1.67;;;0.90;;
13114;SDS011;6623;52.120;8.660;2023-03-24T17:33:31;2.30;;;0.97;;
13114;SDS011;6623;52.120;8.660;2023-03-24T17:35:57;2.93;;;0.90;;
13114;SDS011;6623;52.120;8.660;2023-03-24T17:38:23;2.33;;;1.20;;
13114;SDS011;6623;52.120;8.660;2023-03-24T17:40:56;2.40;;;1.10;;
13114;SDS011;6623;52.120;8.660;2023-03-24T17:43:24;3.27;;;1.10;;